CST,Max TemperatureF,Mean TemperatureF,Min TemperatureF,Max Dew PointF,MeanDew PointF,Min DewpointF,Max Humidity, Mean Humidity, Min Humidity, Max Sea Level PressureIn, Mean Sea Level PressureIn, Min Sea Level PressureIn, Max VisibilityMiles, Mean VisibilityMiles, Min VisibilityMiles, Max Wind SpeedMPH, Mean Wind SpeedMPH, Max Gust SpeedMPH,PrecipitationIn, CloudCover, Events, WindDirDegrees
2011-12-1,51,44,37,37,31,25,75,64,53,30.39,30.12,29.96,10,10,10,23,12,29,0.00,1,,105
2011-12-2,35,32,30,36,26,19,100,73,60,30.48,30.34,30.18,10,9,2,15,8,20,0.09,8,Rain,22
2011-12-3,50,44,37,50,43,34,100,93,76,30.10,29.96,29.84,10,6,1,22,9,28,0.64,8,Rain-Thunderstorm,189
2011-12-4,41,36,30,32,29,27,93,79,61,30.24,30.18,30.12,10,10,10,15,11,21,0.00,4,,348
2011-12-5,32,29,26,27,23,19,93,79,69,30.43,30.35,30.23,10,10,2,23,13,31,0.00,6,Rain-Snow,359
2011-12-6,28,24,19,23,17,16,93,80,64,30.40,30.34,30.26,10,9,2,15,10,17,0.00,5,Rain-Snow,337
2011-12-7,41,28,15,25,20,14,93,75,52,30.28,30.22,30.17,10,10,10,12,6,,0.00,0,,217
2011-12-8,48,36,24,30,26,23,93,73,43,30.21,30.15,30.07,10,10,10,13,3,,0.00,0,,106
2011-12-9,32,29,26,28,27,25,93,87,80,30.46,30.33,30.18,10,8,3,16,10,20,0.00,6,,2
2011-12-10,33,26,19,32,25,19,100,92,81,30.57,30.52,30.44,9,5,3,14,5,,0.00,3,,228
2011-12-11,46,36,26,37,32,27,100,87,66,30.43,30.33,30.23,10,6,2,20,9,25,0.04,7,Rain,168
2011-12-12,44,42,39,37,34,32,87,74,61,30.25,30.21,30.18,10,10,10,15,9,18,0.00,8,,155
2011-12-13,50,44,39,50,41,36,100,97,81,30.28,30.19,30.04,10,4,1,15,10,20,0.20,8,Rain,139
2011-12-14,66,60,53,61,57,48,100,95,77,29.99,29.86,29.77,10,7,1,22,16,28,0.19,6,Rain,183
2011-12-15,48,39,30,39,31,27,100,72,46,30.34,30.20,29.97,10,10,10,17,11,23,0.00,0,,345
2011-12-16,44,34,24,28,25,23,93,76,46,30.47,30.41,30.38,10,10,10,8,5,,0.00,0,,13
2011-12-17,53,38,24,34,29,23,93,74,44,30.45,30.40,30.36,10,10,6,8,2,,0.00,0,,250
2011-12-18,55,42,30,39,34,27,100,72,47,30.33,30.14,29.96,10,10,8,18,7,22,0.00,5,,165
2011-12-19,50,47,44,46,44,37,100,91,66,29.95,29.89,29.81,10,6,1,23,11,34,1.64,8,Rain-Thunderstorm,106
2011-12-20,44,38,32,45,37,30,100,96,87,29.90,29.85,29.81,10,7,1,23,16,32,0.17,8,Rain,4
2011-12-21,48,38,28,36,31,27,100,82,62,29.93,29.87,29.78,10,10,10,17,8,21,0.00,1,,190
2011-12-22,37,34,32,36,32,27,100,91,80,30.30,30.07,29.89,10,9,2,25,11,31,0.00,6,Rain-Snow,32
2011-12-23,37,30,24,25,23,19,93,78,52,30.51,30.45,30.40,10,10,10,12,8,21,0.00,0,,330
2011-12-24,44,32,21,28,24,19,93,76,49,30.44,30.39,30.36,10,10,10,9,5,,0.00,0,,237
2011-12-25,48,36,23,34,28,21,100,81,54,30.45,30.39,30.35,10,10,9,10,6,,0.00,0,,304
2011-12-26,48,40,32,37,35,30,100,84,66,30.30,30.12,29.97,10,10,8,12,5,,0.01,6,Rain,282
2011-12-27,48,38,28,30,27,25,100,66,40,30.21,30.13,30.01,10,10,9,17,10,24,0.00,0,,304
2011-12-28,53,40,28,36,29,25,93,71,47,30.11,30.04,29.97,10,10,10,13,6,,0.00,0,,211
2011-12-29,59,44,28,41,34,27,93,69,44,29.96,29.79,29.65,10,10,10,16,7,17,0.00,0,,210
2011-12-30,59,47,35,37,32,28,76,56,31,30.02,29.94,29.77,10,10,10,21,11,29,0.00,0,,283
2011-12-31,66,50,35,39,32,27,75,51,33,30.02,29.79,29.62,10,10,7,32,14,41,0.00,1,,204